createdAt,value
2023-11-20T00:02:06.717Z,64.61
2023-11-20T00:05:09.626Z,63.81
2023-11-20T00:08:11.905Z,64.54
2023-11-20T00:11:17.719Z,64.17
2023-11-20T00:14:20.113Z,63.77
2023-11-20T00:17:22.279Z,63.84
2023-11-20T00:20:24.577Z,64.26
2023-11-20T00:23:26.783Z,64.40
2023-11-20T00:26:29.044Z,64.06
2023-11-20T00:29:38.674Z,64.09
2023-11-20T00:32:41.022Z,64.14
2023-11-20T00:35:43.244Z,63.88
2023-11-20T00:38:46.273Z,63.94
2023-11-20T00:41:48.479Z,63.58
2023-11-20T00:44:50.726Z,63.74
2023-11-20T00:47:54.305Z,63.72
2023-11-20T00:50:58.008Z,63.59
2023-11-20T00:54:00.327Z,63.96
2023-11-20T00:57:03.436Z,64.07
2023-11-20T01:00:10.004Z,64.32
2023-11-20T01:03:12.454Z,63.97
2023-11-20T01:06:14.828Z,64.57
2023-11-20T01:09:17.325Z,64.04
2023-11-20T01:12:19.639Z,63.99
2023-11-20T01:15:21.992Z,63.41
2023-11-20T01:18:24.578Z,63.74
2023-11-20T01:21:26.781Z,64.02
2023-11-20T01:24:29.056Z,63.97
2023-11-20T01:27:31.301Z,63.73
2023-11-20T01:30:33.681Z,63.81
2023-11-20T01:33:35.948Z,63.53
2023-11-20T01:36:38.844Z,63.56
2023-11-20T01:39:41.588Z,63.47
2023-11-20T01:42:43.987Z,63.53
2023-11-20T01:45:47.680Z,63.56
2023-11-20T01:48:49.972Z,63.02
2023-11-20T01:51:52.818Z,63.23
2023-11-20T01:54:55.229Z,63.53
2023-11-20T01:57:57.613Z,63.30
2023-11-20T02:01:00.056Z,63.13
2023-11-20T02:04:04.110Z,63.09
2023-11-20T02:07:09.103Z,62.99
2023-11-20T02:10:12.074Z,63.77
2023-11-20T02:13:16.081Z,63.39
2023-11-20T02:16:18.386Z,63.48
2023-11-20T02:19:21.020Z,63.30
2023-11-20T02:22:23.257Z,63.26
2023-11-20T02:25:25.547Z,63.51
2023-11-20T02:28:29.289Z,63.40
2023-11-20T02:31:34.398Z,63.34
2023-11-20T02:34:37.438Z,63.10
2023-11-20T02:37:40.877Z,63.51
2023-11-20T02:40:43.085Z,62.95
2023-11-20T02:43:45.896Z,63.32
2023-11-20T02:46:48.132Z,63.07
2023-11-20T02:49:50.359Z,63.15
2023-11-20T02:52:53.555Z,62.67
2023-11-20T02:55:57.389Z,63.02
2023-11-20T02:58:59.685Z,62.83
2023-11-20T03:02:02.786Z,62.98
2023-11-20T03:05:08.921Z,62.81
2023-11-20T03:08:12.213Z,62.52
2023-11-20T03:11:15.211Z,62.18
2023-11-20T03:14:17.501Z,62.76
2023-11-20T03:17:19.760Z,62.50
2023-11-20T03:20:23.054Z,62.47
2023-11-20T03:23:25.594Z,63.01
2023-11-20T03:26:27.965Z,62.92
2023-11-20T03:29:30.417Z,63.05
2023-11-20T03:32:32.662Z,63.04
2023-11-20T03:35:34.877Z,63.07
2023-11-20T03:38:37.438Z,62.79
2023-11-20T03:41:39.633Z,63.20
2023-11-20T03:44:41.841Z,62.71
2023-11-20T03:47:44.125Z,62.67
2023-11-20T03:50:46.375Z,62.73
2023-11-20T03:53:48.542Z,62.58
2023-11-20T03:56:51.795Z,62.93
2023-11-20T03:59:53.989Z,63.02
2023-11-20T04:02:56.400Z,62.98
2023-11-20T04:06:00.954Z,62.98
2023-11-20T04:09:04.311Z,62.95
2023-11-20T04:12:07.247Z,62.98
2023-11-20T04:15:09.839Z,63.00
2023-11-20T04:18:12.127Z,62.98
2023-11-20T04:21:14.751Z,62.63
2023-11-20T04:24:17.937Z,63.06
2023-11-20T04:27:20.091Z,62.81
2023-11-20T04:30:23.335Z,63.57
2023-11-20T04:33:26.384Z,63.33
2023-11-20T04:36:29.083Z,63.44
2023-11-20T04:39:34.228Z,63.92
2023-11-20T04:42:36.451Z,62.97
2023-11-20T04:45:38.715Z,63.38
2023-11-20T04:48:41.028Z,63.56
2023-11-20T04:51:43.329Z,63.93
2023-11-20T04:54:45.596Z,63.74
2023-11-20T04:57:47.984Z,63.76
2023-11-20T05:00:51.213Z,63.80
2023-11-20T05:03:53.699Z,63.68
2023-11-20T05:06:55.951Z,63.63
2023-11-20T05:09:58.617Z,63.53
2023-11-20T05:13:01.096Z,63.51
2023-11-20T05:16:03.531Z,64.12
2023-11-20T05:19:05.853Z,63.64
2023-11-20T05:22:08.059Z,63.68
2023-11-20T05:25:10.663Z,63.56
2023-11-20T05:28:13.052Z,63.72
2023-11-20T05:31:15.374Z,63.97
2023-11-20T05:34:18.058Z,64.11
2023-11-20T05:37:20.285Z,63.09
2023-11-20T05:40:22.804Z,63.63
2023-11-20T05:43:25.126Z,63.60
2023-11-20T05:46:27.574Z,63.50
2023-11-20T05:49:29.753Z,63.13
2023-11-20T05:52:33.607Z,63.18
2023-11-20T05:55:35.770Z,63.37
2023-11-20T05:58:37.931Z,62.73
2023-11-20T06:01:40.942Z,62.50
2023-11-20T06:04:43.411Z,62.58
2023-11-20T06:07:45.653Z,62.83
2023-11-20T06:10:47.829Z,62.74
2023-11-20T06:13:50.382Z,62.41
2023-11-20T06:16:52.666Z,62.39
2023-11-20T06:19:57.790Z,62.68
2023-11-20T06:23:00.209Z,62.55
2023-11-20T06:26:03.133Z,62.83
2023-11-20T06:29:05.399Z,62.10
2023-11-20T06:32:08.064Z,62.54
2023-11-20T06:35:10.509Z,62.51
2023-11-20T06:38:13.345Z,62.37
2023-11-20T06:41:18.908Z,62.34
2023-11-20T06:44:22.887Z,62.40
2023-11-20T06:47:25.741Z,62.70
2023-11-20T06:50:29.196Z,63.01
2023-11-20T06:53:34.584Z,63.23
2023-11-20T06:56:37.286Z,62.85
2023-11-20T06:59:39.601Z,62.84
2023-11-20T07:02:57.045Z,62.78
2023-11-20T07:06:46.018Z,62.93
2023-11-20T07:13:40.391Z,63.64
2023-11-20T07:16:42.950Z,63.52
2023-11-20T07:19:45.443Z,63.56
2023-11-20T07:22:47.759Z,63.66
2023-11-20T07:25:50.176Z,63.28
2023-11-20T07:28:52.368Z,63.77
2023-11-20T07:31:54.844Z,63.75
2023-11-20T07:34:57.134Z,63.46
2023-11-20T07:37:59.296Z,63.44
2023-11-20T07:41:03.364Z,64.01
2023-11-20T07:44:05.618Z,63.82
2023-11-20T07:47:07.984Z,64.08
2023-11-20T07:50:12.217Z,63.89
2023-11-20T07:53:14.430Z,64.57
2023-11-20T07:56:18.535Z,64.05
2023-11-20T07:59:21.065Z,64.17
2023-11-20T08:02:26.513Z,64.59
2023-11-20T08:05:44.381Z,64.35
2023-11-20T08:09:01.622Z,64.96
2023-11-20T08:12:05.657Z,64.58
2023-11-20T08:15:13.703Z,64.28
2023-11-20T08:18:16.755Z,65.23
2023-11-20T08:21:19.515Z,65.28
2023-11-20T08:24:22.876Z,65.63
2023-11-20T08:27:25.212Z,64.41
2023-11-20T08:30:31.199Z,65.51
2023-11-20T08:33:35.427Z,65.71
2023-11-20T08:36:38.085Z,65.09
2023-11-20T08:39:41.123Z,66.23
2023-11-20T08:42:43.481Z,65.58
2023-11-20T08:45:46.695Z,66.01
2023-11-20T08:48:49.117Z,65.94
2023-11-20T08:51:59.070Z,66.47
2023-11-20T08:55:06.332Z,66.27
2023-11-20T08:58:09.541Z,66.54
2023-11-20T09:01:11.981Z,67.07
2023-11-20T09:04:14.545Z,66.96
2023-11-20T09:07:16.858Z,66.88
2023-11-20T09:10:24.186Z,66.52
2023-11-20T09:13:26.611Z,66.96
2023-11-20T09:16:29.089Z,67.05
2023-11-20T09:19:31.485Z,67.27
2023-11-20T09:22:33.658Z,66.85
2023-11-20T09:25:40.278Z,67.07
2023-11-20T09:28:43.472Z,67.08
2023-11-20T09:31:49.110Z,67.74
2023-11-20T09:34:51.699Z,67.58
2023-11-20T09:37:54.012Z,67.62
2023-11-20T09:40:59.874Z,67.28
2023-11-20T09:44:02.858Z,67.44
2023-11-20T09:47:07.764Z,67.48
2023-11-20T09:50:12.170Z,67.60
2023-11-20T09:53:23.094Z,67.21
2023-11-20T09:56:29.905Z,68.13
2023-11-20T09:59:33.313Z,67.57
2023-11-20T10:02:36.869Z,67.48
2023-11-20T10:05:42.104Z,67.35
2023-11-20T10:08:45.483Z,66.90
2023-11-20T10:11:49.678Z,66.60
2023-11-20T10:14:51.935Z,66.49
2023-11-20T10:17:54.299Z,65.92
2023-11-20T10:20:59.490Z,66.53
2023-11-20T10:24:02.540Z,65.55
2023-11-20T10:27:07.105Z,65.17
2023-11-20T10:30:10.876Z,65.10
2023-11-20T10:33:20.888Z,65.30
2023-11-20T10:36:23.365Z,65.29
2023-11-20T10:39:26.476Z,65.54
2023-11-20T10:42:29.342Z,64.63
2023-11-20T10:45:34.208Z,64.72
2023-11-20T10:48:40.405Z,64.39
2023-11-20T10:51:49.744Z,64.43
2023-11-20T10:54:54.256Z,63.83
2023-11-20T10:57:57.372Z,63.51
2023-11-20T11:01:00.035Z,62.75
2023-11-20T11:04:03.040Z,62.57
2023-11-20T11:07:06.873Z,62.15
2023-11-20T11:10:11.857Z,61.58
2023-11-20T11:13:19.583Z,60.90
2023-11-20T11:16:52.415Z,60.69
2023-11-20T11:20:03.160Z,60.64
2023-11-20T11:23:09.517Z,60.84
2023-11-20T11:26:31.643Z,60.13
2023-11-20T11:29:41.343Z,59.93
2023-11-20T11:33:26.072Z,59.86
2023-11-20T11:36:50.704Z,59.60
2023-11-20T11:40:01.188Z,59.88
2023-11-20T11:43:19.236Z,59.94
2023-11-20T11:46:21.658Z,59.56
2023-11-20T11:49:24.618Z,59.32
2023-11-20T11:52:31.468Z,59.64
2023-11-20T11:55:41.397Z,59.22
2023-11-20T11:58:46.296Z,59.43
2023-11-20T12:01:52.860Z,60.81
2023-11-20T12:04:56.315Z,60.11
2023-11-20T12:07:59.952Z,60.13
2023-11-20T12:11:02.349Z,60.50
2023-11-20T12:14:10.675Z,60.90
2023-11-20T12:17:15.930Z,60.97
2023-11-20T12:20:18.342Z,61.24
2023-11-20T12:23:23.964Z,61.07
2023-11-20T12:26:26.542Z,61.32
2023-11-20T12:29:32.232Z,61.14
2023-11-20T12:32:35.756Z,60.65
2023-11-20T12:35:38.133Z,60.67
2023-11-20T12:38:47.503Z,60.47
2023-11-20T12:41:52.423Z,60.62
2023-11-20T12:44:54.759Z,60.44
2023-11-20T12:51:23.129Z,60.09
2023-11-20T12:54:28.050Z,59.96
2023-11-20T12:57:32.010Z,60.38
2023-11-20T13:00:34.300Z,60.60
2023-11-20T13:03:37.382Z,60.28
2023-11-20T13:06:41.099Z,60.42
2023-11-20T13:10:07.592Z,60.67
2023-11-20T13:13:12.947Z,60.94
2023-11-20T13:16:19.769Z,60.77
2023-11-20T13:19:42.531Z,62.05
2023-11-20T13:22:45.214Z,61.19
2023-11-20T13:25:52.673Z,61.16
2023-11-20T13:28:55.440Z,61.61
2023-11-20T13:31:57.793Z,61.79
2023-11-20T13:35:00.003Z,62.58
2023-11-20T13:38:04.345Z,63.41
2023-11-20T13:41:09.984Z,63.86
2023-11-20T13:44:12.385Z,64.36
2023-11-20T13:47:14.737Z,62.95
2023-11-20T13:50:16.968Z,63.81
2023-11-20T13:53:21.651Z,63.95
2023-11-20T13:56:24.822Z,64.26
2023-11-20T13:59:27.030Z,63.83
2023-11-20T14:02:29.326Z,63.94
2023-11-20T14:05:31.633Z,64.31
2023-11-20T14:08:34.949Z,63.79
2023-11-20T14:11:37.429Z,64.19
2023-11-20T14:14:40.488Z,64.30
2023-11-20T14:17:44.046Z,63.91
2023-11-20T14:20:46.254Z,64.27
2023-11-20T14:23:48.796Z,64.39
2023-11-20T14:26:50.956Z,64.28
2023-11-20T14:29:56.399Z,63.65
2023-11-20T14:32:59.502Z,62.67
2023-11-20T14:36:01.784Z,62.35
2023-11-20T14:39:04.032Z,61.46
2023-11-20T14:42:07.454Z,61.11
2023-11-20T14:45:13.995Z,61.04
2023-11-20T14:48:17.090Z,60.80
2023-11-20T14:51:21.835Z,60.85
2023-11-20T14:54:24.328Z,61.24
2023-11-20T14:57:26.521Z,60.71
2023-11-20T15:00:29.503Z,61.04
2023-11-20T15:03:31.898Z,60.85
2023-11-20T15:06:34.285Z,61.18
2023-11-20T15:09:38.323Z,60.60
2023-11-20T15:12:42.142Z,61.13
2023-11-20T15:15:44.368Z,60.82
2023-11-20T15:18:48.166Z,60.87
2023-11-20T15:21:50.645Z,60.58
2023-11-20T15:24:52.950Z,60.53
2023-11-20T15:27:55.297Z,60.10
2023-11-20T15:30:57.580Z,60.60
2023-11-20T15:33:59.908Z,60.33
2023-11-20T15:37:02.150Z,60.47
2023-11-20T15:40:06.972Z,60.36
2023-11-20T15:43:11.786Z,60.57
2023-11-20T15:46:15.677Z,60.30
2023-11-20T15:49:18.716Z,60.70
2023-11-20T15:52:21.386Z,60.80
2023-11-20T15:55:23.603Z,60.69
2023-11-20T15:58:25.814Z,60.72
2023-11-20T16:01:33.711Z,60.92
2023-11-20T16:04:40.685Z,60.94
2023-11-20T16:07:43.137Z,61.04
2023-11-20T16:10:45.490Z,61.09
2023-11-20T16:13:47.733Z,61.21
2023-11-20T16:16:51.315Z,61.11
2023-11-20T16:19:53.615Z,61.09
2023-11-20T16:22:55.943Z,60.89
2023-11-20T16:25:58.172Z,60.88
2023-11-20T16:29:00.402Z,61.09
2023-11-20T16:32:04.281Z,61.22
2023-11-20T16:35:07.270Z,61.40
2023-11-20T16:38:09.476Z,61.30
2023-11-20T16:41:11.733Z,61.63
2023-11-20T16:44:19.187Z,61.93
2023-11-20T16:47:21.540Z,62.18
2023-11-20T16:50:23.769Z,62.06
2023-11-20T16:53:26.159Z,62.39
2023-11-20T16:56:32.930Z,62.79
2023-11-20T16:59:35.179Z,62.84
2023-11-20T17:02:37.666Z,63.16
2023-11-20T17:05:40.373Z,63.03
2023-11-20T17:08:44.306Z,63.28
2023-11-20T17:11:46.475Z,63.45
2023-11-20T17:14:48.659Z,63.77
2023-11-20T17:17:50.825Z,63.98
2023-11-20T17:20:53.396Z,63.69
2023-11-20T17:23:55.541Z,63.67
2023-11-20T17:26:58.121Z,63.50
2023-11-20T17:30:02.050Z,63.73
2023-11-20T17:33:06.113Z,63.42
2023-11-20T17:36:15.593Z,63.98
2023-11-20T17:39:17.788Z,63.71
2023-11-20T17:42:19.940Z,63.91
2023-11-20T17:45:22.207Z,64.06
2023-11-20T17:48:26.211Z,64.23
2023-11-20T17:51:28.849Z,64.01
2023-11-20T17:54:32.353Z,64.36
2023-11-20T17:57:35.095Z,64.21
2023-11-20T18:00:38.020Z,64.65
2023-11-20T18:03:40.411Z,64.72
2023-11-20T18:06:42.717Z,64.23
2023-11-20T18:09:44.914Z,64.27
2023-11-20T18:12:47.141Z,64.26
2023-11-20T18:15:50.579Z,64.49
2023-11-20T18:18:52.999Z,64.20
2023-11-20T18:21:55.229Z,64.30
2023-11-20T18:24:57.464Z,63.78
2023-11-20T18:27:59.821Z,63.64
2023-11-20T18:31:02.064Z,64.19
2023-11-20T18:34:04.790Z,64.09
2023-11-20T18:37:07.029Z,64.28
2023-11-20T18:40:15.330Z,63.97
2023-11-20T18:43:18.924Z,64.00
2023-11-20T18:46:21.328Z,63.91
2023-11-20T18:49:23.614Z,63.88
2023-11-20T18:52:25.833Z,64.19
2023-11-20T18:55:28.115Z,64.28
2023-11-20T18:58:30.342Z,63.59
2023-11-20T19:01:32.640Z,63.63
2023-11-20T19:04:35.020Z,63.42
2023-11-20T19:07:37.539Z,63.30
2023-11-20T19:10:43.909Z,62.78
2023-11-20T19:13:46.250Z,63.03
2023-11-20T19:16:48.630Z,62.59
2023-11-20T19:19:50.858Z,62.64
2023-11-20T19:22:53.061Z,62.45
2023-11-20T19:25:55.212Z,62.46
2023-11-20T19:29:00.415Z,62.46
2023-11-20T19:32:02.584Z,62.52
2023-11-20T19:35:05.784Z,62.19
2023-11-20T19:38:09.706Z,62.57
2023-11-20T19:41:12.462Z,62.14
2023-11-20T19:44:14.666Z,62.01
2023-11-20T19:47:16.957Z,61.92
2023-11-20T19:50:19.274Z,62.05
2023-11-20T19:53:24.561Z,62.47
2023-11-20T19:56:26.837Z,62.10
2023-11-20T19:59:29.649Z,62.18
2023-11-20T20:02:32.035Z,62.67
2023-11-20T20:05:34.217Z,62.40
2023-11-20T20:08:36.421Z,62.06
2023-11-20T20:11:38.874Z,61.78
2023-11-20T20:14:42.501Z,62.17
2023-11-20T20:17:46.647Z,61.88
2023-11-20T20:20:48.950Z,62.03
2023-11-20T20:23:53.161Z,61.93
2023-11-20T20:26:56.243Z,62.75
2023-11-20T20:29:58.577Z,62.87
2023-11-20T20:33:00.838Z,62.32
2023-11-20T20:36:03.159Z,62.59
2023-11-20T20:39:06.637Z,62.96
2023-11-20T20:42:09.562Z,62.56
2023-11-20T20:45:11.770Z,62.62
2023-11-20T20:48:13.949Z,62.96
2023-11-20T20:51:16.217Z,62.86
2023-11-20T20:54:20.201Z,62.88
2023-11-20T20:57:24.942Z,62.49
2023-11-20T21:00:27.347Z,62.51
2023-11-20T21:03:34.261Z,62.65
2023-11-20T21:06:36.994Z,62.79
2023-11-20T21:09:39.221Z,62.93
2023-11-20T21:12:41.481Z,63.70
2023-11-20T21:15:44.607Z,63.78
2023-11-20T21:18:46.779Z,63.80
2023-11-20T21:21:49.007Z,64.06
2023-11-20T21:24:51.182Z,63.97
2023-11-20T21:27:53.365Z,63.85
2023-11-20T21:30:56.026Z,64.60
2023-11-20T21:33:58.814Z,63.93
2023-11-20T21:37:01.045Z,64.20
2023-11-20T21:40:05.909Z,64.41
2023-11-20T21:43:08.721Z,63.61
2023-11-20T21:46:11.189Z,64.28
2023-11-20T21:49:13.529Z,64.48
2023-11-20T21:52:15.791Z,64.40
2023-11-20T21:55:18.037Z,64.35
2023-11-20T21:58:20.284Z,64.08
2023-11-20T22:01:23.951Z,64.71
2023-11-20T22:04:26.208Z,64.31
2023-11-20T22:07:28.459Z,64.04
2023-11-20T22:10:31.157Z,63.67
2023-11-20T22:13:33.739Z,64.06
2023-11-20T22:16:35.984Z,63.67
2023-11-20T22:19:38.308Z,63.74
2023-11-20T22:22:41.623Z,64.09
2023-11-20T22:25:44.203Z,63.68
2023-11-20T22:28:48.552Z,64.32
2023-11-20T22:31:51.246Z,63.80
2023-11-20T22:35:09.615Z,64.20
2023-11-20T22:38:15.638Z,64.39
2023-11-20T22:41:17.880Z,64.97
2023-11-20T22:44:20.101Z,64.53
2023-11-20T22:47:22.553Z,64.29
2023-11-20T22:50:25.228Z,64.70
2023-11-20T22:53:27.821Z,64.44
2023-11-20T22:56:31.093Z,64.55
2023-11-20T22:59:33.267Z,64.39
2023-11-20T23:02:36.172Z,64.34
2023-11-20T23:05:42.845Z,64.07
2023-11-20T23:08:45.830Z,64.35
2023-11-20T23:11:48.043Z,64.26
2023-11-20T23:14:50.210Z,63.66
2023-11-20T23:17:52.558Z,64.20
2023-11-20T23:20:55.003Z,63.43
2023-11-20T23:23:57.367Z,63.66
2023-11-20T23:26:59.566Z,63.82
2023-11-20T23:30:04.206Z,64.35
2023-11-20T23:33:06.591Z,64.25
2023-11-20T23:36:09.960Z,64.03
2023-11-20T23:39:12.111Z,64.72
2023-11-20T23:42:17.812Z,64.70
2023-11-20T23:45:20.144Z,64.62
2023-11-20T23:48:23.625Z,64.56
2023-11-20T23:51:26.193Z,64.32
2023-11-20T23:54:28.460Z,64.69
2023-11-20T23:57:30.779Z,63.95
